Time;durP1;ratioP1;P1;durP2;ratioP2;P2;SDS_P1;SDS_P2;PMS_P1;PMS_P2;Temp;Humidity;BMP_temperature;BMP_pressure;BME280_temperature;BME280_humidity;BME280_pressure;Samples;Min_cycle;Max_cycle;Signal;HPM_P1;HPM_P2
2021/09/24 05:07:26;;;;;;;9.00;8.05;;;12.10;98.10;;;;;;5033078;28;20241;-87
2021/09/24 05:09:53;;;;;;;9.48;7.80;;;12.10;98.10;;;;;;5042363;28;20222;-89
2021/09/24 05:30:26;;;;;;;12.43;7.68;;;12.20;97.50;;;;;;5007804;28;20223;-90
2021/09/24 05:32:55;;;;;;;12.02;8.80;;;12.20;97.60;;;;;;5008727;28;20247;-88
2021/09/24 05:43:12;;;;;;;9.40;8.13;;;12.30;97.60;;;;;;5009312;28;20239;-89
2021/09/24 06:05:51;;;;;;;11.18;8.07;;;12.90;96.20;;;;;;4911086;29;20238;-92
2021/09/24 06:50:38;;;;;;;8.73;6.28;;;13.50;94.90;;;;;;4851161;29;20237;-89
2021/09/24 06:53:07;;;;;;;7.50;6.05;;;13.60;94.40;;;;;;4847563;29;20249;-91
2021/09/24 06:55:34;;;;;;;6.85;6.15;;;13.70;93.90;;;;;;4929046;29;20497;-89
2021/09/24 06:58:22;;;;;;;9.57;6.93;;;13.60;93.90;;;;;;4951088;29;20214;-91
2021/09/24 07:00:49;;;;;;;7.65;6.00;;;13.70;93.90;;;;;;4944658;29;20237;-90
2021/09/24 07:03:17;;;;;;;6.72;6.03;;;13.70;93.90;;;;;;4949491;29;20720;-90
2021/09/24 07:05:53;;;;;;;8.60;6.13;;;13.70;93.90;;;;;;4947828;29;20229;-90
2021/09/24 07:08:39;;;;;;;7.45;6.13;;;13.90;93.70;;;;;;4940428;29;20268;-87
2021/09/24 07:11:06;;;;;;;7.38;6.10;;;14.00;93.20;;;;;;4945797;28;20233;-91
2021/09/24 07:13:43;;;;;;;8.15;5.53;;;14.00;93.20;;;;;;4981187;28;20306;-91
2021/09/24 07:16:17;;;;;;;8.48;6.72;;;14.10;93.30;;;;;;5005423;28;20222;-90
2021/09/24 07:18:45;;;;;;;7.30;6.15;;;14.10;93.30;;;;;;4995913;28;20282;-89
2021/09/24 07:21:19;;;;;;;9.18;6.07;;;14.20;93.30;;;;;;5010957;28;20682;-93
2021/09/24 07:23:46;;;;;;;7.30;6.10;;;14.30;92.60;;;;;;4982565;28;20286;-93
2021/09/24 07:26:13;;;;;;;6.72;5.95;;;14.50;91.30;;;;;;5009601;28;20207;-93
2021/09/24 07:28:41;;;;;;;11.70;6.40;;;14.60;91.40;;;;;;5015314;28;20199;-90
2021/09/24 07:31:08;;;;;;;6.40;5.78;;;14.70;91.40;;;;;;5006566;28;20719;-93
2021/09/24 07:33:35;;;;;;;7.22;6.00;;;14.80;91.40;;;;;;5008452;28;20237;-91
2021/09/24 07:36:04;;;;;;;6.43;5.75;;;14.90;90.60;;;;;;5014704;28;20223;-90
2021/09/24 07:38:31;;;;;;;6.18;5.47;;;15.00;90.30;;;;;;5007278;28;20206;-90
2021/09/24 07:40:57;;;;;;;6.10;5.50;;;15.10;90.00;;;;;;5011101;28;20728;-93
2021/09/24 07:43:24;;;;;;;9.05;5.55;;;15.20;89.10;;;;;;5007226;28;20607;-94
2021/09/24 07:45:51;;;;;;;6.00;5.20;;;15.20;89.20;;;;;;5015483;28;20234;-96
2021/09/24 07:48:18;;;;;;;6.00;5.38;;;15.30;89.10;;;;;;5017367;28;20263;-93
2021/09/24 07:51:04;;;;;;;7.32;4.80;;;15.60;87.10;;;;;;5015765;28;20509;-91
2021/09/24 07:53:47;;;;;;;5.93;5.30;;;16.10;84.50;;;;;;5014465;28;20644;-92
2021/09/24 07:59:46;;;;;;;6.18;5.10;;;16.20;79.30;;;;;;5009725;28;20222;-91
2021/09/24 08:02:13;;;;;;;6.55;5.38;;;16.20;81.60;;;;;;5015313;28;20187;-89
2021/09/24 08:04:40;;;;;;;5.78;5.15;;;16.10;80.60;;;;;;5017852;28;20198;-89
2021/09/24 08:07:09;;;;;;;6.22;5.10;;;16.10;80.50;;;;;;4997123;28;20199;-93
2021/09/24 08:09:44;;;;;;;6.90;5.05;;;16.10;79.50;;;;;;5015460;28;20716;-93
2021/09/24 08:12:11;;;;;;;9.68;5.38;;;16.20;79.20;;;;;;5015518;28;20564;-92
2021/09/24 08:14:38;;;;;;;5.90;5.25;;;16.20;78.20;;;;;;5006638;28;20239;-93
2021/09/24 08:17:05;;;;;;;6.78;4.80;;;16.20;78.10;;;;;;5005954;28;20547;-93
2021/09/24 08:19:32;;;;;;;6.82;5.13;;;16.30;78.20;;;;;;5007837;28;20230;-93
2021/09/24 08:21:59;;;;;;;7.35;4.88;;;16.30;76.90;;;;;;5015201;28;20546;-94
2021/09/24 08:24:30;;;;;;;7.80;5.13;;;16.40;76.60;;;;;;5001710;28;20227;-93
2021/09/24 08:26:57;;;;;;;7.05;4.97;;;16.40;78.00;;;;;;4976857;28;20282;-93
2021/09/24 08:29:26;;;;;;;7.18;4.80;;;16.40;74.80;;;;;;5001378;28;20233;-91
2021/09/24 08:31:53;;;;;;;6.72;4.55;;;16.50;75.20;;;;;;4975807;28;20219;-92
2021/09/24 08:34:40;;;;;;;4.97;4.57;;;16.70;73.70;;;;;;5007911;28;20419;-90
2021/09/24 08:37:07;;;;;;;7.53;4.43;;;17.00;73.60;;;;;;5005062;28;20200;-90
2021/09/24 08:39:36;;;;;;;9.10;5.15;;;17.30;70.40;;;;;;5018133;28;20229;-90
2021/09/24 08:42:03;;;;;;;8.23;4.50;;;17.80;62.60;;;;;;5018348;28;20225;-91
2021/09/24 08:51:30;;;;;;;5.40;4.47;;;18.90;54.90;;;;;;5014737;28;20191;-89
2021/09/24 08:53:57;;;;;;;7.22;4.47;;;18.90;52.80;;;;;;5018103;28;20188;-90
2021/09/24 08:56:26;;;;;;;6.25;3.80;;;18.90;54.00;;;;;;5009690;28;20212;-89
2021/09/24 08:58:53;;;;;;;5.22;4.20;;;18.80;53.90;;;;;;5011714;28;20214;-92
2021/09/24 09:01:30;;;;;;;6.10;3.83;;;18.90;53.50;;;;;;5003515;28;20207;-92
2021/09/24 09:04:01;;;;;;;5.75;3.88;;;18.70;50.60;;;;;;5006738;28;20199;-90
2021/09/24 09:07:03;;;;;;;6.45;4.30;;;18.90;53.10;;;;;;5017922;28;20199;-93
2021/09/24 09:09:33;;;;;;;6.95;3.70;;;19.20;51.30;;;;;;4984195;28;20222;-93
2021/09/24 09:15:19;;;;;;;6.28;4.50;;;19.70;49.20;;;;;;4981624;28;20249;-92
2021/09/24 09:18:18;;;;;;;6.50;3.92;;;19.80;46.40;;;;;;4965314;28;20204;-92
2021/09/24 09:20:48;;;;;;;6.30;4.20;;;21.20;43.20;;;;;;5007487;28;20596;-89
2021/09/24 09:23:15;;;;;;;5.68;3.90;;;22.10;36.40;;;;;;5011741;28;20204;-86
2021/09/24 09:25:43;;;;;;;4.30;3.90;;;22.40;34.10;;;;;;5008428;28;20222;-86
2021/09/24 09:28:14;;;;;;;3.83;3.53;;;22.50;34.10;;;;;;5004874;28;20199;-88
2021/09/24 09:30:45;;;;;;;3.58;3.28;;;23.00;34.60;;;;;;5008537;28;20221;-88
2021/09/24 09:33:16;;;;;;;5.28;4.32;;;24.20;29.70;;;;;;4992972;28;20210;-87
2021/09/24 09:35:47;;;;;;;5.13;4.63;;;25.90;25.00;;;;;;5005496;28;20334;-93
2021/09/24 09:38:23;;;;;;;4.70;4.30;;;26.90;24.20;;;;;;5009685;28;20195;-89
2021/09/24 09:40:54;;;;;;;4.22;3.90;;;28.00;21.00;;;;;;5002097;28;20637;-87
2021/09/24 09:43:51;;;;;;;4.85;4.45;;;29.00;18.20;;;;;;5012737;28;20663;-87
2021/09/24 09:46:20;;;;;;;5.15;4.65;;;29.80;16.60;;;;;;5003246;28;20204;-87
2021/09/24 09:49:01;;;;;;;6.72;4.20;;;30.30;16.80;;;;;;5008002;28;20550;-89
2021/09/24 09:51:30;;;;;;;4.93;4.05;;;30.40;16.80;;;;;;5009358;28;20276;-89
2021/09/24 09:59:28;;;;;;;5.30;4.80;;;30.70;17.00;;;;;;4993302;28;20215;-89
2021/09/24 10:02:13;;;;;;;4.75;4.35;;;29.70;16.70;;;;;;4987523;28;20659;-90
2021/09/24 10:18:40;;;;;;;5.03;4.35;;;31.80;17.50;;;;;;5009050;28;20249;-90
2021/09/24 10:30:54;;;;;;;4.70;4.30;;;29.70;17.80;;;;;;4995507;28;20269;-88
2021/09/24 10:33:21;;;;;;;5.18;4.43;;;29.20;18.40;;;;;;4988368;28;20208;-87
2021/09/24 10:35:51;;;;;;;6.50;5.05;;;29.10;19.10;;;;;;4992988;28;20226;-88
2021/09/24 10:38:20;;;;;;;5.18;4.60;;;29.40;18.70;;;;;;5002009;28;20199;-88
2021/09/24 10:40:58;;;;;;;5.60;5.03;;;29.50;18.10;;;;;;5004512;28;20223;-89
2021/09/24 10:43:42;;;;;;;5.40;4.90;;;29.00;18.90;;;;;;4988611;28;20254;-91
2021/09/24 10:46:33;;;;;;;5.25;4.75;;;29.10;19.10;;;;;;5006803;28;20227;-90
2021/09/24 10:49:32;;;;;;;5.25;4.38;;;28.70;19.20;;;;;;4992923;28;20226;-88
2021/09/24 10:52:35;;;;;;;5.15;4.65;;;28.90;19.00;;;;;;5013460;28;20676;-87
2021/09/24 10:55:02;;;;;;;5.22;4.78;;;27.80;20.70;;;;;;5011572;28;20228;-88
2021/09/24 10:57:59;;;;;;;4.90;4.50;;;27.80;21.00;;;;;;5000182;28;20227;-88
2021/09/24 11:00:29;;;;;;;4.80;4.43;;;28.00;20.10;;;;;;5005973;28;20693;-85
2021/09/24 11:03:10;;;;;;;5.30;4.80;;;27.50;23.50;;;;;;5015402;28;20194;-87
2021/09/24 11:09:01;;;;;;;5.47;4.13;;;25.50;28.10;;;;;;5010789;28;20232;-87
2021/09/24 11:11:31;;;;;;;4.90;4.50;;;24.90;29.30;;;;;;5006655;28;20207;-83
2021/09/24 11:14:29;;;;;;;5.90;5.03;;;24.50;29.10;;;;;;5010028;28;20238;-88
2021/09/24 11:16:57;;;;;;;8.13;5.03;;;24.00;30.80;;;;;;5004612;28;20415;-90
2021/09/24 11:19:38;;;;;;;7.55;4.60;;;23.40;33.70;;;;;;5006705;28;20220;-89
2021/09/24 11:22:22;;;;;;;5.50;4.53;;;23.20;34.80;;;;;;5006785;28;20202;-90
2021/09/24 11:25:06;;;;;;;5.43;4.60;;;23.00;34.60;;;;;;5003652;28;20249;-92
2021/09/24 11:27:35;;;;;;;6.35;5.35;;;22.80;34.30;;;;;;5006205;28;20207;-90
2021/09/24 11:30:26;;;;;;;5.45;4.90;;;22.70;34.30;;;;;;5007171;28;20219;-89
2021/09/24 11:33:48;;;;;;;4.85;4.45;;;22.70;35.60;;;;;;4997947;28;20196;-88
2021/09/24 11:40:25;;;;;;;5.18;4.68;;;22.20;33.90;;;;;;5009620;28;20218;-92
2021/09/24 11:46:18;;;;;;;6.03;4.70;;;22.10;33.80;;;;;;5007532;28;20226;-89
2021/09/24 11:48:46;;;;;;;5.90;4.40;;;21.90;33.60;;;;;;4997111;28;20263;-91
2021/09/24 11:54:04;;;;;;;6.32;4.85;;;21.70;35.90;;;;;;5018477;28;20199;-91
2021/09/24 12:06:52;;;;;;;5.63;4.78;;;21.90;36.70;;;;;;5026591;28;20187;-91
2021/09/24 12:09:22;;;;;;;9.02;5.50;;;21.80;38.60;;;;;;5019961;28;20218;-90
2021/09/24 12:30:19;;;;;;;5.10;4.50;;;21.60;40.10;;;;;;5634133;23;20245;-88
2021/09/24 12:32:47;;;;;;;7.07;4.90;;;21.80;39.10;;;;;;5016079;28;20196;-91
2021/09/24 12:35:14;;;;;;;5.15;4.60;;;21.90;38.30;;;;;;5036784;28;20209;-91
2021/09/24 12:37:43;;;;;;;8.13;4.88;;;21.90;37.10;;;;;;5033177;28;20751;-91
2021/09/24 12:42:56;;;;;;;7.53;4.97;;;22.00;37.90;;;;;;4999960;28;20200;-90
2021/09/24 12:45:26;;;;;;;5.28;4.78;;;21.90;38.40;;;;;;5034969;28;20228;-89
2021/09/24 12:47:54;;;;;;;8.73;4.88;;;21.90;37.10;;;;;;5038183;28;20639;-89
2021/09/24 12:50:22;;;;;;;6.70;5.13;;;21.90;38.20;;;;;;5039546;28;20195;-90
2021/09/24 12:52:55;;;;;;;5.00;4.47;;;21.80;37.30;;;;;;5035243;28;20213;-91
2021/09/24 12:55:24;;;;;;;5.65;4.90;;;21.90;38.00;;;;;;5040604;28;20191;-90
2021/09/24 12:57:53;;;;;;;5.68;4.32;;;21.90;37.40;;;;;;5037423;28;20222;-89
2021/09/24 13:00:20;;;;;;;5.70;5.13;;;21.90;35.60;;;;;;5036946;28;20189;-89
2021/09/24 13:45:08;;;;;;;4.75;4.35;;;21.60;36.20;;;;;;5146229;23;20258;-93
2021/09/24 13:47:36;;;;;;;4.63;4.22;;;21.60;34.50;;;;;;4999887;28;20215;-90
2021/09/24 14:08:14;;;;;;;4.60;4.10;;;21.50;33.30;;;;;;5036654;28;20183;-90
2021/09/24 14:14:06;;;;;;;4.20;3.90;;;21.50;33.40;;;;;;5686130;23;20265;-91
2021/09/24 14:26:48;;;;;;;4.00;3.70;;;21.30;33.10;;;;;;5024238;28;20213;-91
2021/09/24 14:36:14;;;;;;;5.72;4.28;;;21.20;33.00;;;;;;5046840;28;20662;-90
2021/09/24 14:38:50;;;;;;;4.13;3.72;;;21.10;33.00;;;;;;5039155;28;20561;-91
2021/09/24 14:59:09;;;;;;;4.25;3.88;;;21.00;35.40;;;;;;5017358;28;20188;-89
2021/09/24 15:01:36;;;;;;;5.38;4.43;;;20.90;36.40;;;;;;5004736;28;20214;-89
2021/09/24 15:04:03;;;;;;;5.25;4.75;;;20.90;36.70;;;;;;5018807;28;20196;-88
2021/09/24 15:23:41;;;;;;;4.80;4.30;;;20.60;37.20;;;;;;5037835;28;20237;-90
2021/09/24 15:26:10;;;;;;;4.40;4.00;;;20.60;38.60;;;;;;5038603;28;20209;-91
2021/09/24 15:40:11;;;;;;;6.55;4.40;;;20.40;40.50;;;;;;5037133;28;20229;-88
2021/09/24 15:46:01;;;;;;;8.48;6.78;;;20.20;42.20;;;;;;5030527;28;20197;-92
2021/09/24 15:48:28;;;;;;;4.40;4.00;;;20.20;41.70;;;;;;5026269;28;20215;-89
2021/09/24 15:50:59;;;;;;;8.48;6.55;;;20.10;40.30;;;;;;5027703;28;20225;-89
2021/09/24 15:53:26;;;;;;;6.40;4.40;;;20.10;41.40;;;;;;5035489;28;20390;-88
2021/09/24 15:55:52;;;;;;;5.65;4.15;;;20.00;42.30;;;;;;5039343;28;20240;-89
2021/09/24 15:58:19;;;;;;;5.20;4.20;;;20.00;41.40;;;;;;5040065;28;20212;-87
2021/09/24 16:04:35;;;;;;;5.68;5.00;;;19.80;41.90;;;;;;5023218;28;20257;-87
2021/09/24 16:07:02;;;;;;;6.85;3.85;;;19.70;42.70;;;;;;5022657;28;20213;-90
2021/09/24 16:09:29;;;;;;;4.30;3.92;;;19.70;43.60;;;;;;5013710;28;20233;-89
2021/09/24 16:11:56;;;;;;;7.80;4.25;;;19.60;44.50;;;;;;5026483;28;20209;-91
2021/09/24 16:14:23;;;;;;;4.65;4.25;;;19.60;42.60;;;;;;5001327;28;20682;-90
2021/09/24 16:16:50;;;;;;;279.95;251.55;;;19.60;43.80;;;;;;5001237;28;20216;-92
2021/09/24 16:19:20;;;;;;;14.10;11.57;;;19.60;43.30;;;;;;5004410;28;20260;-91
2021/09/24 16:21:56;;;;;;;5.93;4.78;;;19.60;42.60;;;;;;5004252;28;20329;-89
2021/09/24 16:24:39;;;;;;;7.30;4.50;;;19.60;43.10;;;;;;5012901;28;20225;-92
2021/09/24 16:27:06;;;;;;;6.18;4.38;;;19.50;43.70;;;;;;5010945;28;20230;-92
2021/09/24 16:29:33;;;;;;;8.10;5.57;;;19.40;45.80;;;;;;5003192;28;20231;-91
2021/09/24 16:32:00;;;;;;;7.72;4.57;;;19.30;47.50;;;;;;5010609;28;20207;-87
2021/09/24 16:34:28;;;;;;;15.05;6.60;;;19.20;50.00;;;;;;5006446;28;20227;-87
2021/09/24 16:36:56;;;;;;;9.45;5.20;;;19.10;53.10;;;;;;5009545;28;20628;-89
2021/09/24 16:39:24;;;;;;;9.25;4.70;;;19.00;54.80;;;;;;5018872;28;20227;-87
2021/09/24 16:41:51;;;;;;;6.90;5.82;;;18.90;54.90;;;;;;5015965;28;20693;-89
2021/09/24 16:44:18;;;;;;;6.25;4.80;;;18.90;54.90;;;;;;5011822;28;20203;-89
2021/09/24 16:46:46;;;;;;;6.45;4.88;;;18.70;56.80;;;;;;5017272;28;20199;-94
2021/09/24 16:49:15;;;;;;;7.18;4.55;;;18.70;58.20;;;;;;5017146;28;20336;-90
2021/09/24 16:51:42;;;;;;;8.18;4.50;;;18.60;58.50;;;;;;5006793;28;20204;-91
2021/09/24 17:00:17;;;;;;;6.13;4.53;;;18.30;62.10;;;;;;5007690;28;20191;-92
2021/09/24 17:26:56;;;;;;;7.75;4.45;;;17.30;66.80;;;;;;5025065;28;20735;-94
2021/09/24 17:29:26;;;;;;;5.65;4.85;;;17.10;69.00;;;;;;5020983;28;20262;-92
2021/09/24 17:31:54;;;;;;;7.07;4.95;;;17.00;72.10;;;;;;5019238;28;20208;-94
2021/09/24 17:34:21;;;;;;;8.52;5.38;;;16.90;74.40;;;;;;5031078;28;20226;-92
2021/09/24 17:40:13;;;;;;;7.65;6.82;;;16.80;75.20;;;;;;5018423;28;20194;-95
2021/09/24 17:43:51;;;;;;;6.57;5.75;;;16.70;76.00;;;;;;4952576;28;20236;-93
2021/09/24 17:49:56;;;;;;;8.23;5.88;;;16.60;77.60;;;;;;5005895;28;20206;-94
2021/09/24 17:59:47;;;;;;;6.07;5.47;;;16.40;80.30;;;;;;5021479;28;20188;-92
2021/09/24 18:09:39;;;;;;;8.07;6.20;;;16.10;83.60;;;;;;5021453;28;20190;-95
2021/09/24 18:45:46;;;;;;;9.27;6.75;;;15.40;90.90;;;;;;4996509;28;20211;-93
2021/09/24 18:49:00;;;;;;;8.65;6.97;;;15.30;91.00;;;;;;5044698;28;20206;-93
2021/09/24 18:51:43;;;;;;;8.60;6.50;;;15.20;91.40;;;;;;5045275;28;20206;-94
2021/09/24 18:54:10;;;;;;;9.45;6.63;;;15.10;91.50;;;;;;5029272;28;20202;-94
2021/09/24 18:56:37;;;;;;;8.15;5.90;;;15.10;91.50;;;;;;5026324;28;20210;-94
2021/09/24 19:05:23;;;;;;;8.55;7.10;;;15.00;91.50;;;;;;5000279;28;20231;-95
2021/09/24 19:07:50;;;;;;;10.00;6.70;;;14.90;91.40;;;;;;5039511;28;20207;-94
2021/09/24 19:10:18;;;;;;;7.47;6.50;;;14.80;91.40;;;;;;5041812;28;20245;-95
